Time;durP1;ratioP1;P1;durP2;ratioP2;P2;SDS_P1;SDS_P2;PMS_P1;PMS_P2;Temp;Humidity;BMP_temperature;BMP_pressure;BME280_temperature;BME280_humidity;BME280_pressure;Samples;Min_cycle;Max_cycle;Signal;HPM_P1;HPM_P2
2022/04/23 00:00:48;;;;;;;15.70;9.98;;;;;;;;;;4273789;83;28473;-85
2022/04/23 00:06:49;;;;;;;16.73;10.28;;;;;;;;;;4283794;83;28480;-84
2022/04/23 00:12:50;;;;;;;19.52;11.43;;;;;;;;;;4285073;83;28484;-84
2022/04/23 00:18:51;;;;;;;18.52;10.75;;;;;;;;;;4284905;83;28509;-83
2022/04/23 00:24:52;;;;;;;17.85;9.95;;;;;;;;;;4284114;83;28605;-85
2022/04/23 00:30:53;;;;;;;20.75;12.50;;;;;;;;;;4284306;83;28592;-86
2022/04/23 00:36:54;;;;;;;17.73;11.53;;;;;;;;;;4284488;83;28969;-86
2022/04/23 00:42:56;;;;;;;15.18;9.88;;;;;;;;;;4274088;83;28526;-84
2022/04/23 00:49:00;;;;;;;18.00;10.82;;;;;;;;;;4275700;83;28554;-85
2022/04/23 00:55:02;;;;;;;21.82;10.35;;;;;;;;;;4284977;83;28502;-85
2022/04/23 01:01:03;;;;;;;16.70;10.65;;;;;;;;;;4284282;82;28475;-85
2022/04/23 01:07:05;;;;;;;18.10;10.32;;;;;;;;;;4285717;83;28519;-85
2022/04/23 01:13:08;;;;;;;15.83;8.98;;;;;;;;;;4291805;82;28500;-83
2022/04/23 01:19:08;;;;;;;14.90;9.28;;;;;;;;;;4282814;83;28552;-84
2022/04/23 01:25:12;;;;;;;16.42;9.68;;;;;;;;;;4286364;83;28506;-84
2022/04/23 01:31:13;;;;;;;16.15;8.90;;;;;;;;;;4285620;83;28477;-84
2022/04/23 01:37:14;;;;;;;15.70;9.70;;;;;;;;;;4267093;83;28479;-84
2022/04/23 01:43:14;;;;;;;17.25;9.85;;;;;;;;;;4268426;83;28482;-84
2022/04/23 01:49:15;;;;;;;17.25;9.33;;;;;;;;;;4270171;83;28524;-83
2022/04/23 01:55:16;;;;;;;16.27;9.68;;;;;;;;;;4285849;83;28508;-83
2022/04/23 02:01:17;;;;;;;13.95;8.75;;;;;;;;;;4286678;83;28499;-84
2022/04/23 02:07:18;;;;;;;15.45;9.60;;;;;;;;;;4284822;83;28547;-84
2022/04/23 02:13:19;;;;;;;16.55;9.95;;;;;;;;;;4285272;83;28595;-84
2022/04/23 02:19:20;;;;;;;14.33;9.13;;;;;;;;;;4285547;83;28518;-83
2022/04/23 02:25:20;;;;;;;12.13;7.92;;;;;;;;;;4279694;83;28461;-84
2022/04/23 02:31:21;;;;;;;15.15;9.15;;;;;;;;;;4272126;83;28497;-85
2022/04/23 02:37:23;;;;;;;15.10;8.45;;;;;;;;;;4270850;83;28447;-84
2022/04/23 02:43:24;;;;;;;15.28;8.33;;;;;;;;;;4255534;83;28534;-84
2022/04/23 02:49:25;;;;;;;15.90;9.10;;;;;;;;;;4274137;83;28559;-83
2022/04/23 02:55:26;;;;;;;14.55;8.80;;;;;;;;;;4283886;83;28488;-83
2022/04/23 03:01:28;;;;;;;13.30;7.62;;;;;;;;;;4285025;83;28497;-84
2022/04/23 03:07:30;;;;;;;15.68;9.60;;;;;;;;;;4284881;82;28520;-84
2022/04/23 03:13:31;;;;;;;15.40;8.70;;;;;;;;;;4277383;83;28475;-84
2022/04/23 03:19:32;;;;;;;12.80;7.58;;;;;;;;;;4273002;83;28476;-83
2022/04/23 03:25:33;;;;;;;14.83;8.55;;;;;;;;;;4284730;83;28488;-83
2022/04/23 03:31:34;;;;;;;14.50;8.83;;;;;;;;;;4295804;82;28508;-84
2022/04/23 03:37:36;;;;;;;10.98;7.03;;;;;;;;;;4308129;82;28511;-83
2022/04/23 03:43:37;;;;;;;14.43;8.00;;;;;;;;;;4309943;83;28505;-83
2022/04/23 03:49:38;;;;;;;13.88;8.68;;;;;;;;;;4308194;83;28528;-83
2022/04/23 03:55:39;;;;;;;14.70;9.03;;;;;;;;;;4309796;83;28524;-84
2022/04/23 04:01:40;;;;;;;13.65;8.15;;;;;;;;;;4283597;83;28518;-83
2022/04/23 04:07:43;;;;;;;13.25;8.33;;;;;;;;;;4259620;83;28507;-83
2022/04/23 04:13:44;;;;;;;14.23;8.30;;;;;;;;;;4307297;83;28550;-83
2022/04/23 04:19:45;;;;;;;14.47;8.38;;;;;;;;;;4287893;83;28500;-83
2022/04/23 04:25:47;;;;;;;13.95;8.60;;;;;;;;;;4287629;83;28496;-83
2022/04/23 04:31:49;;;;;;;14.45;9.10;;;;;;;;;;4309418;82;28525;-83
2022/04/23 04:37:50;;;;;;;14.78;8.23;;;;;;;;;;4295908;82;28489;-83
2022/04/23 04:43:50;;;;;;;14.03;8.33;;;;;;;;;;4234719;84;28554;-83
2022/04/23 04:49:51;;;;;;;19.12;10.58;;;;;;;;;;4233152;83;28564;-84
2022/04/23 04:55:52;;;;;;;15.68;9.70;;;;;;;;;;4226392;84;28513;-84
2022/04/23 05:01:53;;;;;;;15.43;9.65;;;;;;;;;;4306117;82;28554;-83
2022/04/23 05:07:54;;;;;;;14.90;8.98;;;;;;;;;;4206134;83;28523;-84
2022/04/23 05:13:55;;;;;;;15.13;9.33;;;;;;;;;;4209062;84;28482;-84
2022/04/23 05:19:56;;;;;;;16.65;9.83;;;;;;;;;;4309832;81;28534;-84
2022/04/23 05:25:56;;;;;;;15.93;9.40;;;;;;;;;;4305014;81;28505;-84
2022/04/23 05:31:57;;;;;;;14.43;8.55;;;;;;;;;;4286017;81;28538;-84
2022/04/23 05:37:58;;;;;;;17.45;8.63;;;;;;;;;;4292165;81;28455;-88
2022/04/23 05:43:59;;;;;;;14.35;8.43;;;;;;;;;;4305133;83;28479;-85
2022/04/23 05:50:00;;;;;;;15.00;8.75;;;;;;;;;;4305804;83;28502;-83
2022/04/23 05:56:01;;;;;;;15.83;8.95;;;;;;;;;;4282839;81;28546;-83
2022/04/23 06:02:03;;;;;;;17.10;9.20;;;;;;;;;;4290138;81;28488;-85
2022/04/23 06:08:04;;;;;;;14.35;8.45;;;;;;;;;;4305855;81;28487;-82
2022/04/23 06:14:10;;;;;;;13.25;7.67;;;;;;;;;;4262936;81;28482;-82
2022/04/23 06:20:08;;;;;;;13.68;8.23;;;;;;;;;;4307670;83;28553;-82
2022/04/23 06:26:10;;;;;;;13.30;8.30;;;;;;;;;;4307230;83;28490;-83
2022/04/23 06:32:11;;;;;;;15.13;8.38;;;;;;;;;;4279744;81;28506;-84
2022/04/23 06:38:12;;;;;;;15.35;9.40;;;;;;;;;;4298498;83;28451;-85
2022/04/23 06:44:13;;;;;;;13.58;8.80;;;;;;;;;;4298961;83;28627;-83
2022/04/23 06:50:14;;;;;;;13.43;8.03;;;;;;;;;;4281179;83;28508;-84
2022/04/23 06:56:15;;;;;;;12.78;7.58;;;;;;;;;;4299128;83;28483;-83
2022/04/23 07:02:17;;;;;;;12.65;7.83;;;;;;;;;;4283160;81;28477;-86
2022/04/23 07:08:18;;;;;;;12.15;7.15;;;;;;;;;;4299842;83;28501;-86
2022/04/23 07:14:19;;;;;;;8.70;5.65;;;;;;;;;;4269021;82;28542;-87
2022/04/23 07:20:33;;;;;;;10.32;6.03;;;;;;;;;;4277947;82;28521;-83
2022/04/23 07:26:36;;;;;;;9.45;5.47;;;;;;;;;;4297288;81;28544;-85
2022/04/23 07:32:37;;;;;;;7.45;4.92;;;;;;;;;;4285636;81;28491;-85
2022/04/23 07:38:38;;;;;;;7.55;4.67;;;;;;;;;;4295615;81;28494;-87
2022/04/23 07:44:39;;;;;;;7.22;4.50;;;;;;;;;;4300477;83;28491;-87
2022/04/23 07:50:41;;;;;;;7.72;5.08;;;;;;;;;;4298737;83;28531;-87
2022/04/23 07:56:41;;;;;;;7.03;4.50;;;;;;;;;;4291296;83;28512;-86
2022/04/23 08:02:43;;;;;;;6.58;4.58;;;;;;;;;;4283595;83;28506;-86
2022/04/23 08:08:44;;;;;;;5.87;4.28;;;;;;;;;;4299419;83;28506;-87
2022/04/23 08:14:45;;;;;;;7.62;4.28;;;;;;;;;;4301003;83;28504;-88
2022/04/23 08:20:46;;;;;;;5.72;4.20;;;;;;;;;;4300224;83;28591;-86
2022/04/23 08:26:46;;;;;;;5.95;3.95;;;;;;;;;;4299173;81;28486;-86
2022/04/23 08:32:47;;;;;;;5.08;3.80;;;;;;;;;;4297540;81;28509;-87
2022/04/23 08:38:48;;;;;;;5.97;4.17;;;;;;;;;;4283979;83;28528;-87
2022/04/23 08:44:51;;;;;;;5.80;3.80;;;;;;;;;;4297659;83;28513;-86
2022/04/23 08:50:54;;;;;;;4.92;3.47;;;;;;;;;;4299521;83;28506;-86
2022/04/23 08:56:55;;;;;;;7.03;4.03;;;;;;;;;;4299867;82;28495;-87
2022/04/23 09:02:56;;;;;;;5.10;3.65;;;;;;;;;;4300881;83;28498;-87
2022/04/23 09:09:08;;;;;;;6.05;3.67;;;;;;;;;;4305690;81;28543;-87
2022/04/23 09:27:48;;;;;;;4.62;3.37;;;;;;;;;;4300337;83;28572;-87
2022/04/23 09:33:51;;;;;;;4.40;3.30;;;;;;;;;;4299709;81;28537;-85
2022/04/23 09:39:52;;;;;;;3.95;3.20;;;;;;;;;;4299132;81;28485;-86
2022/04/23 09:46:05;;;;;;;4.60;3.22;;;;;;;;;;4298757;83;28499;-87
2022/04/23 09:52:09;;;;;;;4.92;3.87;;;;;;;;;;4256184;82;28580;-85
2022/04/23 09:58:13;;;;;;;5.72;4.20;;;;;;;;;;4222046;84;28543;-85
2022/04/23 10:04:17;;;;;;;4.03;3.27;;;;;;;;;;4210131;83;28533;-85
2022/04/23 10:10:18;;;;;;;6.80;3.40;;;;;;;;;;4222640;83;28538;-85
2022/04/23 10:16:19;;;;;;;4.78;3.45;;;;;;;;;;4217611;83;28555;-85
2022/04/23 10:22:22;;;;;;;4.97;3.42;;;;;;;;;;4207229;83;28584;-87
2022/04/23 10:28:30;;;;;;;4.08;3.40;;;;;;;;;;4224565;83;28562;-83
2022/04/23 10:34:32;;;;;;;4.33;3.20;;;;;;;;;;4226260;84;28539;-85
2022/04/23 10:40:35;;;;;;;7.08;3.47;;;;;;;;;;4242748;82;28548;-87
2022/04/23 10:46:42;;;;;;;3.40;2.98;;;;;;;;;;4245554;82;28471;-84
2022/04/23 10:52:41;;;;;;;3.72;2.62;;;;;;;;;;4230237;84;28530;-85
2022/04/23 10:58:43;;;;;;;4.03;2.60;;;;;;;;;;4233266;83;28513;-84
2022/04/23 11:17:55;;;;;;;3.10;2.70;;;;;;;;;;4230882;84;28558;-85
2022/04/23 11:23:57;;;;;;;2.90;2.60;;;;;;;;;;4244810;84;28534;-85
2022/04/23 11:29:58;;;;;;;3.65;2.87;;;;;;;;;;4245292;84;28494;-85
2022/04/23 11:36:00;;;;;;;3.62;2.90;;;;;;;;;;4251512;82;28490;-85
2022/04/23 11:42:01;;;;;;;4.28;2.85;;;;;;;;;;4258998;83;28500;-85
2022/04/23 11:48:10;;;;;;;4.15;3.08;;;;;;;;;;4258970;83;28537;-85
2022/04/23 11:54:11;;;;;;;3.92;3.52;;;;;;;;;;4281678;83;28543;-84
2022/04/23 12:00:18;;;;;;;3.62;3.10;;;;;;;;;;4257837;83;28491;-86
2022/04/23 12:06:16;;;;;;;4.25;3.10;;;;;;;;;;4240455;83;28541;-85
2022/04/23 12:12:19;;;;;;;4.15;3.10;;;;;;;;;;4259041;83;28509;-86
2022/04/23 12:18:21;;;;;;;3.70;3.02;;;;;;;;;;4256614;83;28494;-85
2022/04/23 12:24:30;;;;;;;4.33;3.12;;;;;;;;;;4257384;83;28551;-86
2022/04/23 12:43:22;;;;;;;4.45;3.58;;;;;;;;;;4242964;83;28566;-85
2022/04/23 12:49:24;;;;;;;4.50;3.80;;;;;;;;;;4244189;83;28566;-84
2022/04/23 12:55:28;;;;;;;4.12;3.70;;;;;;;;;;4243372;83;28548;-85
2022/04/23 13:01:29;;;;;;;3.25;2.90;;;;;;;;;;4243675;82;28588;-85
2022/04/23 13:13:56;;;;;;;4.40;3.50;;;;;;;;;;4248453;83;28493;-85
2022/04/23 13:19:57;;;;;;;4.80;3.67;;;;;;;;;;4225468;84;28540;-85
2022/04/23 13:25:58;;;;;;;6.15;3.90;;;;;;;;;;4263120;82;28497;-84
2022/04/23 13:32:00;;;;;;;6.00;4.12;;;;;;;;;;4221191;83;28606;-85
2022/04/23 13:38:00;;;;;;;5.90;3.98;;;;;;;;;;4230828;84;28514;-85
2022/04/23 13:44:03;;;;;;;4.35;3.42;;;;;;;;;;4233054;84;28532;-85
2022/04/23 13:50:04;;;;;;;4.22;3.45;;;;;;;;;;4214319;84;28535;-85
2022/04/23 13:56:05;;;;;;;4.78;4.12;;;;;;;;;;4233414;84;28527;-85
2022/04/23 14:14:45;;;;;;;4.05;3.52;;;;;;;;;;4232907;84;28612;-85
2022/04/23 14:20:46;;;;;;;5.60;3.77;;;;;;;;;;4233372;83;28499;-85
2022/04/23 14:26:49;;;;;;;5.45;3.67;;;;;;;;;;4214164;84;28554;-82
2022/04/23 14:32:50;;;;;;;4.67;4.05;;;;;;;;;;4234887;83;28558;-84
2022/04/23 14:38:53;;;;;;;5.22;4.15;;;;;;;;;;4246995;83;28503;-86
2022/04/23 14:44:53;;;;;;;6.12;3.87;;;;;;;;;;4227249;83;28555;-86
2022/04/23 14:57:14;;;;;;;5.28;3.70;;;;;;;;;;4244064;83;28549;-85
2022/04/23 15:03:16;;;;;;;5.97;3.30;;;;;;;;;;4243744;82;28599;-86
2022/04/23 15:09:17;;;;;;;4.03;3.47;;;;;;;;;;4237950;83;28579;-87
2022/04/23 15:15:18;;;;;;;4.97;3.55;;;;;;;;;;4244784;83;28498;-88
2022/04/23 15:21:20;;;;;;;5.03;3.77;;;;;;;;;;4233667;82;28481;-88
2022/04/23 15:27:21;;;;;;;4.85;3.67;;;;;;;;;;4245723;82;28514;-91
2022/04/23 15:33:22;;;;;;;5.17;3.62;;;;;;;;;;4248942;82;28527;-90
2022/04/23 15:39:23;;;;;;;3.62;2.98;;;;;;;;;;4260889;83;28541;-90
2022/04/23 15:45:24;;;;;;;4.53;3.22;;;;;;;;;;4240196;83;28926;-90
2022/04/23 15:51:25;;;;;;;5.03;3.10;;;;;;;;;;4252049;83;28432;-92
2022/04/23 15:57:29;;;;;;;4.45;3.40;;;;;;;;;;4233046;83;28632;-91
2022/04/23 16:03:32;;;;;;;5.00;3.45;;;;;;;;;;4261040;84;28548;-92
2022/04/23 16:09:34;;;;;;;3.65;2.90;;;;;;;;;;4261257;83;28577;-92
2022/04/23 16:15:34;;;;;;;5.53;3.40;;;;;;;;;;4262262;83;28569;-92
2022/04/23 16:21:35;;;;;;;3.75;2.98;;;;;;;;;;4255793;83;28482;-92
2022/04/23 16:27:37;;;;;;;3.15;2.70;;;;;;;;;;4221271;84;28526;-92
2022/04/23 16:33:38;;;;;;;3.45;2.65;;;;;;;;;;4205601;84;28540;-91
2022/04/23 16:52:22;;;;;;;5.05;3.20;;;;;;;;;;4298189;83;28551;-92
2022/04/23 16:58:25;;;;;;;4.15;3.15;;;;;;;;;;4297168;83;28511;-92
2022/04/23 17:04:27;;;;;;;5.47;4.10;;;;;;;;;;4296411;82;28500;-92
2022/04/23 17:10:27;;;;;;;3.98;3.15;;;;;;;;;;4252603;83;28514;-92
2022/04/23 17:16:28;;;;;;;4.58;3.00;;;;;;;;;;4248000;83;28492;-91
2022/04/23 17:22:29;;;;;;;4.12;3.45;;;;;;;;;;4299288;83;28524;-91
2022/04/23 17:28:30;;;;;;;4.83;3.17;;;;;;;;;;4297791;83;28508;-91
2022/04/23 17:34:31;;;;;;;4.35;3.40;;;;;;;;;;4326396;81;28495;-91
2022/04/23 17:40:32;;;;;;;5.40;3.15;;;;;;;;;;4326471;82;28527;-89
2022/04/23 17:46:33;;;;;;;4.87;3.20;;;;;;;;;;4301192;83;28492;-89
2022/04/23 17:52:34;;;;;;;4.90;3.33;;;;;;;;;;4301064;83;28487;-88
2022/04/23 17:58:35;;;;;;;5.62;3.45;;;;;;;;;;4301435;83;28483;-90
2022/04/23 18:10:50;;;;;;;7.20;3.60;;;;;;;;;;4158071;83;28493;-88
2022/04/23 18:16:51;;;;;;;4.22;3.08;;;;;;;;;;4298165;83;28507;-89
2022/04/23 18:22:52;;;;;;;4.95;3.17;;;;;;;;;;4307914;83;28456;-88
2022/04/23 18:28:54;;;;;;;4.80;3.30;;;;;;;;;;4301429;83;28494;-88
2022/04/23 18:34:55;;;;;;;4.35;3.42;;;;;;;;;;4302064;82;28503;-87
2022/04/23 18:40:56;;;;;;;8.93;4.10;;;;;;;;;;4281545;81;28569;-88
2022/04/23 18:47:01;;;;;;;9.10;5.67;;;;;;;;;;4276394;83;28444;-89
2022/04/23 18:53:02;;;;;;;8.90;4.97;;;;;;;;;;4307301;83;28508;-89
2022/04/23 18:59:03;;;;;;;5.97;3.95;;;;;;;;;;4307717;81;28464;-84
2022/04/23 19:05:04;;;;;;;7.80;4.08;;;;;;;;;;4307644;81;28531;-87
2022/04/23 19:11:06;;;;;;;7.55;4.40;;;;;;;;;;4303967;82;28522;-88
2022/04/23 19:17:08;;;;;;;8.55;4.50;;;;;;;;;;4306822;83;28584;-88
2022/04/23 19:29:29;;;;;;;10.55;5.65;;;;;;;;;;4308691;81;28538;-89
2022/04/23 19:35:30;;;;;;;10.35;5.70;;;;;;;;;;4309063;83;28482;-89
2022/04/23 19:41:31;;;;;;;10.35;6.42;;;;;;;;;;4308137;81;28456;-88
2022/04/23 19:47:32;;;;;;;10.50;5.78;;;;;;;;;;4306922;83;28526;-87
2022/04/23 19:53:33;;;;;;;11.00;5.55;;;;;;;;;;4288468;83;28534;-87
2022/04/23 19:59:35;;;;;;;12.53;6.85;;;;;;;;;;4309096;83;28530;-87
2022/04/23 20:05:37;;;;;;;11.30;6.80;;;;;;;;;;4301969;83;28511;-89
2022/04/23 20:11:40;;;;;;;12.37;6.60;;;;;;;;;;4306967;83;28456;-90
2022/04/23 20:17:41;;;;;;;13.18;6.83;;;;;;;;;;4308906;83;28508;-89
2022/04/23 20:23:42;;;;;;;11.53;6.90;;;;;;;;;;4309577;83;28589;-88
2022/04/23 20:29:43;;;;;;;13.78;7.60;;;;;;;;;;4309940;83;28520;-86
2022/04/23 20:42:03;;;;;;;25.17;14.43;;;;;;;;;;4287521;83;28492;-89
2022/04/23 20:48:05;;;;;;;13.50;8.23;;;;;;;;;;4289702;83;28483;-87
2022/04/23 20:54:08;;;;;;;14.60;9.18;;;;;;;;;;4287413;83;28543;-88
2022/04/23 21:00:11;;;;;;;15.20;8.88;;;;;;;;;;4287785;83;28596;-87
2022/04/23 21:06:12;;;;;;;16.00;10.23;;;;;;;;;;4288601;83;28523;-88
2022/04/23 21:12:15;;;;;;;18.20;10.90;;;;;;;;;;4290480;83;28520;-87
2022/04/23 21:18:17;;;;;;;21.55;12.10;;;;;;;;;;4261844;83;28529;-89
2022/04/23 21:24:18;;;;;;;19.75;11.75;;;;;;;;;;4261630;83;28504;-86
2022/04/23 21:30:19;;;;;;;19.50;10.78;;;;;;;;;;4290662;83;28524;-86
2022/04/23 21:36:20;;;;;;;17.87;10.98;;;;;;;;;;4277249;83;28477;-87
2022/04/23 21:48:40;;;;;;;23.65;11.73;;;;;;;;;;4293191;82;28485;-90
2022/04/23 21:54:41;;;;;;;20.55;11.65;;;;;;;;;;4254576;82;28546;-89
2022/04/23 22:00:44;;;;;;;24.30;14.05;;;;;;;;;;4245919;83;28488;-89
2022/04/23 22:06:44;;;;;;;24.35;13.58;;;;;;;;;;4241611;83;28526;-89
2022/04/23 22:12:45;;;;;;;24.92;14.73;;;;;;;;;;4239067;83;28509;-89
2022/04/23 22:18:46;;;;;;;28.32;15.20;;;;;;;;;;4249129;84;28636;-90
2022/04/23 22:24:47;;;;;;;22.50;11.65;;;;;;;;;;4274931;82;28477;-90
2022/04/23 22:30:49;;;;;;;22.60;12.20;;;;;;;;;;4260911;83;28549;-89
2022/04/23 22:36:49;;;;;;;20.92;11.65;;;;;;;;;;4277120;83;28554;-87
2022/04/23 22:42:50;;;;;;;21.57;12.55;;;;;;;;;;4295704;83;28552;-88
2022/04/23 22:48:51;;;;;;;24.40;13.95;;;;;;;;;;4294533;83;28492;-87
2022/04/23 22:54:53;;;;;;;22.52;13.28;;;;;;;;;;4295114;83;28558;-88
2022/04/23 23:00:53;;;;;;;25.08;14.43;;;;;;;;;;4295627;83;28529;-88
2022/04/23 23:06:54;;;;;;;27.60;14.75;;;;;;;;;;4271564;83;28509;-88
2022/04/23 23:12:55;;;;;;;29.75;15.68;;;;;;;;;;4268965;81;28588;-88
2022/04/23 23:18:56;;;;;;;24.37;13.58;;;;;;;;;;4295490;82;28476;-88
2022/04/23 23:24:57;;;;;;;24.40;14.25;;;;;;;;;;4276703;83;28511;-88
2022/04/23 23:30:58;;;;;;;27.32;15.10;;;;;;;;;;4295626;83;28544;-88
2022/04/23 23:36:58;;;;;;;31.15;15.85;;;;;;;;;;4278448;83;28516;-87
2022/04/23 23:42:59;;;;;;;24.92;14.58;;;;;;;;;;4223932;84;28594;-88
2022/04/23 23:49:00;;;;;;;35.63;19.85;;;;;;;;;;4220416;84;28544;-86
2022/04/23 23:55:01;;;;;;;29.85;16.80;;;;;;;;;;4255341;83;28544;-88
